createdAt,value
2022-08-26T00:00:12.021Z,19.50
2022-08-26T00:02:41.453Z,19.50
2022-08-26T00:05:18.632Z,19.40
2022-08-26T00:07:49.507Z,19.20
2022-08-26T00:10:22.172Z,19.10
2022-08-26T00:12:56.270Z,19.10
2022-08-26T00:15:26.606Z,19.00
2022-08-26T00:18:22.169Z,19.00
2022-08-26T00:20:51.922Z,19.10
2022-08-26T00:23:29.141Z,19.10
2022-08-26T00:26:08.315Z,19.00
2022-08-26T00:28:38.536Z,18.90
2022-08-26T00:31:11.131Z,18.80
2022-08-26T00:33:40.322Z,18.80
2022-08-26T00:36:20.215Z,18.70
2022-08-26T00:38:58.563Z,18.70
2022-08-26T00:41:47.128Z,18.80
2022-08-26T00:44:15.479Z,18.80
2022-08-26T00:46:49.952Z,18.70
2022-08-26T00:49:31.757Z,18.60
2022-08-26T00:52:05.647Z,18.60
2022-08-26T00:54:47.357Z,18.50
2022-08-26T00:57:24.648Z,18.50
2022-08-26T00:59:59.461Z,18.60
2022-08-26T01:02:28.994Z,18.60
2022-08-26T01:05:13.507Z,18.60
2022-08-26T01:07:42.888Z,18.60
2022-08-26T01:10:19.943Z,18.50
2022-08-26T01:13:10.952Z,18.50
2022-08-26T01:15:51.089Z,18.50
2022-08-26T01:18:20.329Z,18.40
2022-08-26T01:21:14.854Z,18.50
2022-08-26T01:23:52.341Z,18.50
2022-08-26T01:26:44.421Z,18.60
2022-08-26T01:29:22.358Z,18.60
2022-08-26T01:31:55.496Z,18.60
2022-08-26T01:34:29.603Z,18.60
2022-08-26T01:37:13.786Z,18.60
2022-08-26T01:39:44.980Z,18.60
2022-08-26T01:42:15.484Z,18.50
2022-08-26T01:44:51.601Z,18.40
2022-08-26T01:47:21.677Z,18.40
2022-08-26T01:49:52.066Z,18.40
2022-08-26T01:52:28.062Z,18.50
2022-08-26T01:54:57.616Z,18.40
2022-08-26T01:57:26.176Z,18.40
2022-08-26T01:59:57.828Z,18.30
2022-08-26T02:02:25.162Z,18.30
2022-08-26T02:04:59.982Z,18.20
2022-08-26T02:07:28.216Z,18.10
2022-08-26T02:09:55.426Z,18.10
2022-08-26T02:12:23.161Z,18.10
2022-08-26T02:14:54.937Z,18.20
2022-08-26T02:17:30.291Z,18.20
2022-08-26T02:19:58.006Z,18.20
2022-08-26T02:22:25.137Z,18.10
2022-08-26T02:24:59.676Z,18.10
2022-08-26T02:27:35.397Z,18.00
2022-08-26T02:30:11.624Z,17.90
2022-08-26T02:32:40.167Z,17.70
2022-08-26T02:35:10.796Z,17.80
2022-08-26T02:37:38.181Z,17.90
2022-08-26T02:40:11.251Z,18.00
2022-08-26T02:42:38.522Z,18.10
2022-08-26T02:45:06.902Z,18.10
2022-08-26T02:47:34.770Z,18.10
2022-08-26T02:50:02.163Z,18.00
2022-08-26T02:52:29.236Z,18.10
2022-08-26T02:54:56.242Z,18.10
2022-08-26T02:57:23.363Z,18.10
2022-08-26T02:59:51.537Z,18.20
2022-08-26T03:02:18.796Z,18.40
2022-08-26T03:07:30.953Z,18.50
2022-08-26T03:09:59.091Z,18.50
2022-08-26T03:12:26.607Z,18.40
2022-08-26T03:14:53.801Z,18.40
2022-08-26T03:17:21.231Z,18.10
2022-08-26T03:19:51.781Z,18.00
2022-08-26T03:22:21.409Z,17.90
2022-08-26T03:24:50.428Z,17.90
2022-08-26T03:27:17.586Z,17.90
2022-08-26T03:30:03.593Z,18.00
2022-08-26T03:32:31.698Z,18.10
2022-08-26T03:34:59.028Z,18.20
2022-08-26T03:37:26.123Z,18.20
2022-08-26T03:39:53.203Z,18.00
2022-08-26T03:42:22.321Z,18.10
2022-08-26T03:44:51.787Z,18.10
2022-08-26T03:47:18.878Z,18.20
2022-08-26T03:49:45.996Z,18.20
2022-08-26T03:52:13.541Z,18.20
2022-08-26T03:54:41.801Z,18.00
2022-08-26T03:57:10.523Z,17.80
2022-08-26T03:59:37.667Z,17.70
2022-08-26T04:02:08.602Z,17.60
2022-08-26T04:07:25.741Z,17.60
2022-08-26T04:09:57.143Z,17.60
2022-08-26T04:12:28.266Z,17.60
2022-08-26T04:14:55.361Z,17.60
2022-08-26T04:17:26.376Z,17.50
2022-08-26T04:19:54.272Z,17.60
2022-08-26T04:22:25.099Z,17.70
2022-08-26T04:24:52.872Z,17.80
2022-08-26T04:27:20.456Z,17.90
2022-08-26T04:29:47.743Z,17.90
2022-08-26T04:32:15.620Z,18.00
2022-08-26T04:34:44.877Z,18.10
2022-08-26T04:37:13.302Z,18.10
2022-08-26T04:39:40.786Z,18.10
2022-08-26T04:42:07.966Z,18.30
2022-08-26T04:44:37.513Z,18.40
2022-08-26T04:47:04.871Z,18.40
2022-08-26T04:49:35.172Z,18.50
2022-08-26T04:52:03.708Z,18.50
2022-08-26T04:54:31.903Z,18.60
2022-08-26T04:56:59.544Z,18.70
2022-08-26T04:59:26.604Z,18.80
2022-08-26T05:01:57.513Z,18.90
2022-08-26T05:04:24.837Z,19.00
2022-08-26T05:06:56.672Z,19.10
2022-08-26T05:09:26.466Z,19.20
2022-08-26T05:11:53.536Z,19.30
2022-08-26T05:14:23.546Z,19.40
2022-08-26T05:16:51.231Z,19.60
2022-08-26T05:19:19.504Z,19.70
2022-08-26T05:21:48.813Z,19.80
2022-08-26T05:24:16.921Z,19.90
2022-08-26T05:26:44.801Z,20.00
2022-08-26T05:29:12.587Z,20.10
2022-08-26T05:31:39.742Z,20.10
2022-08-26T05:34:08.525Z,20.20
2022-08-26T05:36:36.941Z,20.30
2022-08-26T05:39:10.542Z,20.40
2022-08-26T05:41:41.194Z,20.50
2022-08-26T05:44:11.808Z,20.60
2022-08-26T05:46:40.166Z,20.70
2022-08-26T05:49:12.495Z,20.70
2022-08-26T05:51:41.727Z,20.80
2022-08-26T05:54:10.503Z,20.90
2022-08-26T05:56:39.496Z,21.00
2022-08-26T05:59:14.106Z,21.10
2022-08-26T06:01:43.743Z,21.20
2022-08-26T06:04:11.765Z,21.30
2022-08-26T06:06:42.850Z,21.40
2022-08-26T06:09:11.406Z,21.40
2022-08-26T06:11:39.217Z,21.50
2022-08-26T06:14:08.361Z,21.60
2022-08-26T06:16:43.857Z,21.70
2022-08-26T06:19:14.403Z,21.80
2022-08-26T06:21:45.281Z,21.90
2022-08-26T06:24:33.101Z,22.00
2022-08-26T06:27:09.711Z,22.00
2022-08-26T06:29:39.006Z,22.20
2022-08-26T06:32:07.066Z,22.30
2022-08-26T06:34:36.081Z,22.30
2022-08-26T06:37:03.906Z,22.30
2022-08-26T06:39:33.456Z,22.40
2022-08-26T06:42:02.782Z,22.50
2022-08-26T06:44:30.178Z,22.50
2022-08-26T06:46:57.351Z,22.60
2022-08-26T06:49:26.632Z,22.80
2022-08-26T06:51:58.613Z,23.00
2022-08-26T06:54:27.111Z,23.10
2022-08-26T06:56:56.276Z,23.10
2022-08-26T06:59:24.286Z,23.20
2022-08-26T07:01:52.459Z,23.20
2022-08-26T07:04:23.193Z,23.30
2022-08-26T07:06:53.629Z,23.40
2022-08-26T07:09:23.481Z,23.50
2022-08-26T07:11:51.618Z,23.70
2022-08-26T07:14:21.258Z,23.70
2022-08-26T07:16:50.735Z,23.70
2022-08-26T07:19:31.151Z,23.70
2022-08-26T07:22:04.899Z,23.60
2022-08-26T07:24:35.368Z,23.50
2022-08-26T07:27:05.391Z,23.50
2022-08-26T07:29:33.402Z,23.50
2022-08-26T07:32:00.763Z,23.70
2022-08-26T07:34:28.149Z,23.80
2022-08-26T07:36:57.082Z,23.90
2022-08-26T07:39:25.974Z,24.10
2022-08-26T07:41:54.294Z,24.10
2022-08-26T07:44:21.451Z,24.30
2022-08-26T07:46:53.083Z,24.40
2022-08-26T07:49:22.447Z,24.50
2022-08-26T07:51:50.431Z,24.70
2022-08-26T07:54:18.689Z,24.80
2022-08-26T07:56:46.567Z,24.90
2022-08-26T07:59:15.041Z,24.90
2022-08-26T08:01:45.155Z,25.00
2022-08-26T08:04:17.823Z,25.10
2022-08-26T08:06:46.482Z,25.20
2022-08-26T08:09:16.806Z,25.40
2022-08-26T08:11:45.048Z,25.50
2022-08-26T08:14:13.524Z,25.70
2022-08-26T08:16:42.357Z,25.80
2022-08-26T08:19:13.892Z,25.80
2022-08-26T08:21:42.252Z,25.90
2022-08-26T08:24:11.404Z,25.90
2022-08-26T08:26:39.012Z,26.10
2022-08-26T08:29:08.142Z,26.20
2022-08-26T08:31:56.491Z,26.50
2022-08-26T08:34:25.734Z,26.80
2022-08-26T08:36:53.848Z,27.10
2022-08-26T08:39:22.401Z,27.40
2022-08-26T08:42:26.966Z,27.70
2022-08-26T08:44:59.783Z,27.90
2022-08-26T08:47:37.877Z,28.10
2022-08-26T08:50:20.686Z,28.40
2022-08-26T08:52:56.602Z,28.50
2022-08-26T08:55:29.138Z,28.50
2022-08-26T08:58:10.258Z,28.60
2022-08-26T09:01:00.714Z,28.60
2022-08-26T09:03:47.146Z,28.80
2022-08-26T09:06:18.930Z,28.90
2022-08-26T09:08:50.565Z,29.00
2022-08-26T09:11:20.722Z,29.20
2022-08-26T09:13:57.142Z,29.10
2022-08-26T09:16:56.690Z,29.20
2022-08-26T09:19:30.155Z,29.30
2022-08-26T09:22:00.446Z,29.40
2022-08-26T09:24:31.201Z,29.60
2022-08-26T09:26:59.375Z,29.60
2022-08-26T09:29:34.104Z,29.70
2022-08-26T09:32:25.115Z,29.90
2022-08-26T09:34:59.596Z,30.00
2022-08-26T09:37:43.498Z,30.00
2022-08-26T09:40:23.572Z,29.90
2022-08-26T09:43:08.554Z,30.00
2022-08-26T09:45:39.116Z,30.10
2022-08-26T09:48:08.005Z,30.10
2022-08-26T09:50:38.438Z,30.20
2022-08-26T09:53:09.735Z,30.30
2022-08-26T09:55:42.306Z,30.30
2022-08-26T09:58:14.841Z,30.40
2022-08-26T10:01:03.500Z,30.30
2022-08-26T10:03:36.174Z,30.50
2022-08-26T10:06:27.677Z,30.70
2022-08-26T10:09:02.663Z,30.70
2022-08-26T10:11:56.506Z,30.70
2022-08-26T10:15:02.199Z,30.10
2022-08-26T10:17:37.317Z,30.10
2022-08-26T10:20:23.262Z,30.10
2022-08-26T10:23:07.688Z,30.20
2022-08-26T10:25:59.370Z,30.30
2022-08-26T10:28:57.317Z,30.40
2022-08-26T10:31:28.261Z,30.50
2022-08-26T10:34:00.585Z,30.70
2022-08-26T10:39:41.258Z,30.50
2022-08-26T10:42:34.208Z,30.40
2022-08-26T10:45:25.484Z,30.50
2022-08-26T10:48:05.407Z,30.40
2022-08-26T10:50:39.441Z,30.30
2022-08-26T10:53:37.232Z,30.30
2022-08-26T10:56:32.221Z,30.30
2022-08-26T10:59:04.426Z,30.30
2022-08-26T11:02:07.462Z,29.90
2022-08-26T11:04:48.380Z,29.70
2022-08-26T11:07:46.468Z,29.60
2022-08-26T11:10:23.083Z,29.20
2022-08-26T11:12:55.341Z,29.10
2022-08-26T11:15:27.117Z,29.30
2022-08-26T11:18:04.926Z,29.50
2022-08-26T11:20:39.305Z,29.70
2022-08-26T11:23:22.538Z,29.60
2022-08-26T11:26:05.593Z,29.40
2022-08-26T11:28:44.180Z,29.30
2022-08-26T11:31:28.350Z,29.40
2022-08-26T11:34:04.038Z,29.40
2022-08-26T11:36:46.117Z,29.30
2022-08-26T11:39:54.056Z,29.30
2022-08-26T11:42:35.579Z,29.30
2022-08-26T11:45:17.483Z,29.20
2022-08-26T11:47:44.876Z,29.10
2022-08-26T11:50:20.272Z,29.10
2022-08-26T11:52:56.491Z,29.20
2022-08-26T11:55:24.715Z,29.20
2022-08-26T11:57:56.237Z,29.20
2022-08-26T12:00:39.183Z,29.30
2022-08-26T12:03:21.938Z,29.30
2022-08-26T12:05:53.301Z,29.10
2022-08-26T12:08:25.998Z,29.10
2022-08-26T12:11:11.581Z,29.20
2022-08-26T12:13:39.390Z,29.30
2022-08-26T12:16:07.751Z,29.50
2022-08-26T12:18:38.683Z,29.50
2022-08-26T12:21:24.433Z,29.50
2022-08-26T12:23:56.852Z,29.60
2022-08-26T12:26:36.678Z,29.40
2022-08-26T12:29:20.219Z,29.30
2022-08-26T12:32:09.271Z,29.40
2022-08-26T12:34:36.685Z,29.30
2022-08-26T12:37:04.079Z,29.40
2022-08-26T12:39:38.275Z,29.40
2022-08-26T12:42:17.012Z,29.40
2022-08-26T12:44:54.193Z,29.40
2022-08-26T12:47:42.847Z,29.50
2022-08-26T12:50:25.523Z,29.40
2022-08-26T12:52:52.607Z,29.50
2022-08-26T12:55:23.897Z,29.70
2022-08-26T12:58:20.329Z,29.70
2022-08-26T13:00:48.580Z,29.80
2022-08-26T13:03:45.809Z,29.70
2022-08-26T13:06:16.114Z,29.70
2022-08-26T13:09:06.603Z,29.70
2022-08-26T13:11:39.737Z,29.70
2022-08-26T13:14:24.162Z,29.70
2022-08-26T13:16:53.063Z,29.70
2022-08-26T13:19:29.702Z,29.70
2022-08-26T13:21:59.772Z,29.60
2022-08-26T13:24:33.203Z,29.60
2022-08-26T13:27:01.004Z,29.60
2022-08-26T13:29:28.643Z,29.50
2022-08-26T13:31:56.205Z,29.50
2022-08-26T13:34:24.990Z,29.60
2022-08-26T13:36:54.833Z,29.60
2022-08-26T13:39:23.008Z,29.50
2022-08-26T13:41:50.604Z,29.50
2022-08-26T13:44:18.357Z,29.50
2022-08-26T13:49:17.324Z,29.60
2022-08-26T13:51:44.377Z,29.60
2022-08-26T13:54:11.549Z,29.70
2022-08-26T13:56:39.250Z,29.60
2022-08-26T13:59:06.535Z,29.70
2022-08-26T14:01:34.822Z,29.60
2022-08-26T14:07:13.054Z,29.70
2022-08-26T14:09:40.426Z,29.70
2022-08-26T14:12:07.649Z,29.60
2022-08-26T14:14:34.811Z,29.50
2022-08-26T14:17:02.238Z,29.40
2022-08-26T14:19:30.401Z,29.40
2022-08-26T14:21:59.355Z,29.30
2022-08-26T14:24:26.510Z,29.40
2022-08-26T14:26:53.670Z,29.40
2022-08-26T14:29:20.889Z,29.40
2022-08-26T14:31:48.510Z,29.30
2022-08-26T14:34:15.915Z,29.30
2022-08-26T14:36:43.930Z,29.30
2022-08-26T14:39:12.873Z,29.30
2022-08-26T14:41:54.652Z,29.30
2022-08-26T14:44:25.798Z,29.20
2022-08-26T14:46:54.746Z,29.20
2022-08-26T14:49:23.712Z,29.10
2022-08-26T14:51:50.824Z,29.10
2022-08-26T14:54:18.505Z,28.90
2022-08-26T14:56:55.039Z,28.80
2022-08-26T14:59:28.735Z,28.30
2022-08-26T15:01:57.415Z,28.00
2022-08-26T15:04:25.559Z,27.60
2022-08-26T15:06:54.970Z,27.50
2022-08-26T15:09:22.896Z,27.70
2022-08-26T15:11:50.631Z,27.90
2022-08-26T15:14:19.612Z,28.00
2022-08-26T15:16:52.708Z,28.10
2022-08-26T15:19:20.869Z,28.20
2022-08-26T15:21:48.691Z,28.20
2022-08-26T15:24:20.595Z,28.20
2022-08-26T15:26:49.636Z,28.20
2022-08-26T15:29:17.441Z,28.30
2022-08-26T15:31:44.603Z,28.40
2022-08-26T15:34:16.431Z,28.40
2022-08-26T15:36:45.987Z,28.20
2022-08-26T15:39:14.290Z,28.20
2022-08-26T15:41:41.334Z,28.30
2022-08-26T15:44:09.954Z,28.30
2022-08-26T15:46:38.621Z,28.30
2022-08-26T15:49:07.243Z,28.20
2022-08-26T15:51:45.388Z,28.30
2022-08-26T15:54:14.487Z,28.20
2022-08-26T15:56:41.609Z,28.10
2022-08-26T15:59:11.908Z,28.10
2022-08-26T16:01:39.601Z,28.10
2022-08-26T16:04:06.970Z,28.00
2022-08-26T16:06:36.997Z,28.00
2022-08-26T16:09:05.743Z,27.90
2022-08-26T16:11:34.659Z,27.90
2022-08-26T16:14:02.292Z,27.90
2022-08-26T16:16:29.421Z,27.90
2022-08-26T16:18:56.925Z,27.90
2022-08-26T16:21:28.019Z,27.90
2022-08-26T16:23:56.645Z,27.90
2022-08-26T16:26:28.234Z,27.90
2022-08-26T16:28:55.750Z,27.80
2022-08-26T16:31:22.899Z,27.80
2022-08-26T16:33:50.344Z,27.70
2022-08-26T16:36:17.730Z,27.60
2022-08-26T16:38:50.238Z,27.60
2022-08-26T16:41:17.883Z,27.50
2022-08-26T16:43:45.331Z,27.50
2022-08-26T16:46:14.273Z,27.50
2022-08-26T16:48:42.366Z,27.50
2022-08-26T16:51:16.198Z,27.40
2022-08-26T16:53:44.929Z,27.40
2022-08-26T16:56:17.049Z,27.30
2022-08-26T16:58:44.176Z,27.30
2022-08-26T17:01:11.406Z,27.10
2022-08-26T17:03:38.594Z,27.00
2022-08-26T17:06:05.815Z,27.00
2022-08-26T17:08:32.974Z,26.90
2022-08-26T17:11:00.931Z,26.80
2022-08-26T17:13:35.839Z,26.70
2022-08-26T17:16:05.275Z,26.50
2022-08-26T17:18:33.810Z,26.40
2022-08-26T17:21:03.950Z,26.30
2022-08-26T17:23:31.780Z,26.20
2022-08-26T17:25:59.010Z,26.10
2022-08-26T17:28:26.251Z,26.10
2022-08-26T17:30:55.558Z,26.00
2022-08-26T17:33:24.634Z,26.00
2022-08-26T17:35:53.290Z,25.90
2022-08-26T17:38:21.383Z,25.80
2022-08-26T17:40:48.645Z,25.80
2022-08-26T17:43:16.136Z,25.70
2022-08-26T17:45:43.655Z,25.60
2022-08-26T17:48:11.468Z,25.60
2022-08-26T17:50:43.016Z,25.60
2022-08-26T17:53:19.155Z,25.50
2022-08-26T17:55:48.335Z,25.50
2022-08-26T17:58:17.855Z,25.40
2022-08-26T18:00:51.410Z,25.30
2022-08-26T18:03:19.305Z,25.30
2022-08-26T18:05:51.424Z,25.20
2022-08-26T18:08:19.389Z,25.10
2022-08-26T18:10:47.411Z,25.00
2022-08-26T18:13:15.150Z,25.00
2022-08-26T18:15:44.178Z,24.90
2022-08-26T18:18:12.797Z,25.00
2022-08-26T18:20:41.805Z,24.90
2022-08-26T18:23:09.395Z,24.90
2022-08-26T18:25:40.694Z,24.90
2022-08-26T18:28:07.993Z,24.90
2022-08-26T18:30:35.327Z,24.80
2022-08-26T18:33:02.788Z,24.80
2022-08-26T18:35:30.575Z,24.80
2022-08-26T18:38:10.529Z,24.80
2022-08-26T18:40:40.384Z,24.80
2022-08-26T18:43:08.077Z,24.80
2022-08-26T18:45:36.147Z,24.80
2022-08-26T18:48:04.385Z,24.80
2022-08-26T18:50:31.575Z,24.90
2022-08-26T18:52:58.695Z,24.90
2022-08-26T18:55:25.815Z,24.90
2022-08-26T18:57:55.921Z,24.80
2022-08-26T19:00:23.833Z,24.80
2022-08-26T19:02:51.775Z,24.80
2022-08-26T19:08:04.610Z,24.90
2022-08-26T19:10:31.707Z,24.80
2022-08-26T19:13:00.820Z,24.70
2022-08-26T19:15:29.715Z,24.70
2022-08-26T19:17:57.325Z,24.70
2022-08-26T19:20:24.972Z,24.70
2022-08-26T19:22:52.095Z,24.70
2022-08-26T19:25:19.530Z,24.60
2022-08-26T19:27:46.635Z,24.40
2022-08-26T19:30:14.208Z,24.30
2022-08-26T19:32:41.661Z,24.30
2022-08-26T19:35:09.356Z,24.20
2022-08-26T19:37:36.539Z,24.20
2022-08-26T19:40:06.859Z,24.10
2022-08-26T19:42:34.242Z,24.10
2022-08-26T19:45:24.577Z,24.10
2022-08-26T19:47:53.985Z,24.10
2022-08-26T19:50:22.225Z,24.10
2022-08-26T19:52:49.759Z,24.10
2022-08-26T19:55:19.271Z,24.10
2022-08-26T19:57:46.416Z,24.20
2022-08-26T20:00:16.898Z,24.20
2022-08-26T20:02:44.905Z,24.30
2022-08-26T20:07:58.624Z,24.10
2022-08-26T20:10:25.866Z,24.00
2022-08-26T20:12:53.157Z,23.90
2022-08-26T20:15:21.772Z,23.70
2022-08-26T20:17:49.336Z,23.50
2022-08-26T20:20:34.927Z,23.40
2022-08-26T20:23:04.552Z,23.40
2022-08-26T20:25:32.937Z,23.40
2022-08-26T20:28:00.635Z,23.40
2022-08-26T20:30:27.995Z,23.30
2022-08-26T20:32:55.419Z,23.20
2022-08-26T20:35:23.955Z,23.10
2022-08-26T20:37:51.294Z,23.10
2022-08-26T20:40:18.459Z,23.10
2022-08-26T20:42:45.565Z,23.10
2022-08-26T20:45:12.834Z,23.30
2022-08-26T20:47:39.899Z,23.50
2022-08-26T20:50:08.689Z,23.90
2022-08-26T20:52:35.937Z,24.10
2022-08-26T20:55:02.994Z,24.20
2022-08-26T20:57:30.029Z,24.30
2022-08-26T20:59:57.119Z,24.30
2022-08-26T21:02:24.415Z,24.40
2022-08-26T21:07:36.139Z,24.50
2022-08-26T21:10:04.004Z,24.40
2022-08-26T21:12:31.545Z,24.10
2022-08-26T21:14:58.670Z,24.10
2022-08-26T21:17:25.740Z,23.80
2022-08-26T21:19:53.199Z,23.60
2022-08-26T21:22:20.549Z,23.30
2022-08-26T21:24:48.440Z,23.20
2022-08-26T21:27:23.028Z,23.30
2022-08-26T21:29:59.910Z,23.50
2022-08-26T21:32:30.329Z,23.50
2022-08-26T21:35:03.170Z,23.40
2022-08-26T21:37:33.144Z,23.40
2022-08-26T21:40:04.289Z,23.30
2022-08-26T21:42:35.768Z,23.00
2022-08-26T21:45:06.505Z,22.70
2022-08-26T21:47:36.954Z,22.40
2022-08-26T21:50:06.149Z,22.30
2022-08-26T21:52:36.631Z,22.20
2022-08-26T21:55:09.057Z,22.10
2022-08-26T21:57:38.218Z,22.20
2022-08-26T22:00:09.407Z,22.30
2022-08-26T22:02:41.051Z,22.40
2022-08-26T22:05:09.812Z,22.50
2022-08-26T22:07:40.268Z,22.50
2022-08-26T22:10:13.834Z,22.30
2022-08-26T22:12:42.091Z,22.00
2022-08-26T22:15:14.053Z,21.80
2022-08-26T22:17:43.428Z,21.70
2022-08-26T22:20:16.702Z,21.60
2022-08-26T22:22:45.189Z,21.70
2022-08-26T22:25:12.957Z,21.80
2022-08-26T22:27:42.934Z,21.80
2022-08-26T22:30:12.730Z,21.80
2022-08-26T22:32:48.804Z,21.70
2022-08-26T22:35:28.397Z,21.60
2022-08-26T22:37:58.038Z,21.60
2022-08-26T22:40:27.986Z,21.50
2022-08-26T22:43:05.453Z,21.30
2022-08-26T22:45:35.347Z,21.30
2022-08-26T22:48:05.439Z,21.30
2022-08-26T22:50:35.773Z,21.20
2022-08-26T22:53:03.119Z,21.20
2022-08-26T22:55:30.534Z,21.30
2022-08-26T22:58:06.746Z,21.40
2022-08-26T23:00:36.124Z,21.40
2022-08-26T23:03:05.056Z,21.40
2022-08-26T23:08:21.414Z,21.40
2022-08-26T23:10:52.453Z,21.40
2022-08-26T23:13:28.489Z,21.30
2022-08-26T23:16:08.227Z,21.30
2022-08-26T23:18:39.689Z,21.40
2022-08-26T23:21:12.103Z,21.20
2022-08-26T23:23:40.664Z,21.10
2022-08-26T23:26:09.125Z,21.10
2022-08-26T23:28:39.803Z,21.10
2022-08-26T23:31:16.048Z,21.10
2022-08-26T23:34:05.763Z,21.10
2022-08-26T23:36:41.929Z,21.10
2022-08-26T23:39:15.309Z,21.00
2022-08-26T23:41:51.434Z,20.90
2022-08-26T23:44:29.171Z,20.80
2022-08-26T23:47:00.671Z,20.60
2022-08-26T23:49:38.423Z,20.60
2022-08-26T23:52:28.449Z,20.50
2022-08-26T23:54:56.594Z,20.50
2022-08-26T23:57:34.209Z,20.60
